Coosa Pines, Alabama
Current Conditions -  °F | °C
As of 4:55 PM on Thursday 18 Dec 2014 (Local Time) from KSCD Reporting Station
Broken Clouds Broken Clouds  
Wind Chill: 47°   Ceiling: 12000
Heat Index: 47°   Visibility: 10mi
Dew Point: 35°   Wind: 0mph
Humidity: 63%   Direction: NA
Pressure: 30.15"   Gusts: NA
Location:  33.2952°N, 86.335°W
Report Text: KSCD 182255Z AUTO 00000KT 10SM SCT090 BKN120 08/02 A3015 RMK AO2 T00840017
Loading
Personal Weather Stations






























Interactive Weather Map New forecast layout! Learn more

10-Day Weather Forecast

Advertisements
Track Severe Weather on mobile